createdAt,value
2018-09-06T00:01:50.293Z,97093.89
2018-09-06T00:04:18.949Z,97089.13
2018-09-06T00:06:47.513Z,97087.95
2018-09-06T00:09:16.092Z,97085.52
2018-09-06T00:11:44.973Z,97086.80
2018-09-06T00:14:13.557Z,97093.11
2018-09-06T00:16:42.184Z,97089.16
2018-09-06T00:19:10.877Z,97088.59
2018-09-06T00:21:39.452Z,97088.02
2018-09-06T00:24:08.025Z,97081.00
2018-09-06T00:26:36.651Z,97085.11
2018-09-06T00:29:05.225Z,97081.02
2018-09-06T00:31:33.833Z,97084.20
2018-09-06T00:34:02.425Z,97080.94
2018-09-06T00:36:30.994Z,97082.59
2018-09-06T00:38:59.552Z,97081.52
2018-09-06T00:41:28.177Z,97077.55
2018-09-06T00:43:56.733Z,97074.61
2018-09-06T00:46:25.301Z,97077.09
2018-09-06T00:48:53.902Z,97078.38
2018-09-06T00:51:22.483Z,97081.55
2018-09-06T00:53:59.981Z,97080.38
2018-09-06T00:56:28.611Z,97077.94
2018-09-06T00:58:57.255Z,97081.23
2018-09-06T01:01:27.602Z,97088.61
2018-09-06T01:03:56.203Z,97076.36
2018-09-06T01:06:24.774Z,97078.22
2018-09-06T01:08:53.362Z,97078.11
2018-09-06T01:11:21.915Z,97075.09
2018-09-06T01:13:50.472Z,97069.45
2018-09-06T01:16:19.135Z,97066.57
2018-09-06T01:18:47.692Z,97064.12
2018-09-06T01:21:16.547Z,97064.47
2018-09-06T01:23:45.571Z,97060.52
2018-09-06T01:26:14.151Z,97062.03
2018-09-06T01:28:42.695Z,97060.05
2018-09-06T01:31:12.139Z,97058.52
2018-09-06T01:33:40.696Z,97049.39
2018-09-06T01:36:14.436Z,97049.75
2018-09-06T01:38:42.975Z,97045.78
2018-09-06T01:41:11.551Z,97041.01
2018-09-06T01:43:40.163Z,97045.10
2018-09-06T01:46:08.733Z,97038.55
2018-09-06T01:48:37.304Z,97041.49
2018-09-06T01:51:06.099Z,97042.05
2018-09-06T01:53:34.655Z,97041.59
2018-09-06T01:56:03.219Z,97033.51
2018-09-06T01:58:31.822Z,97034.44
2018-09-06T02:01:00.385Z,97027.33
2018-09-06T02:03:28.951Z,97027.10
2018-09-06T02:05:57.544Z,97031.65
2018-09-06T02:08:26.112Z,97024.64
2018-09-06T02:10:54.655Z,97027.57
2018-09-06T02:13:23.595Z,97026.52
2018-09-06T02:15:52.145Z,97024.17
2018-09-06T02:18:20.700Z,97024.30
2018-09-06T02:20:49.366Z,97024.66
2018-09-06T02:23:17.907Z,97029.56
2018-09-06T02:25:46.550Z,97022.42
2018-09-06T02:28:15.303Z,97020.81
2018-09-06T02:30:43.863Z,97021.73
2018-09-06T02:33:12.415Z,97022.78
2018-09-06T02:35:41.495Z,97024.06
2018-09-06T02:38:10.044Z,97013.56
2018-09-06T02:40:39.039Z,97016.95
2018-09-06T02:43:10.359Z,97020.58
2018-09-06T02:45:38.992Z,97004.56
2018-09-06T02:48:07.563Z,97001.86
2018-09-06T02:50:41.443Z,97004.43
2018-09-06T02:53:10.377Z,97004.89
2018-09-06T02:55:39.071Z,97007.83
2018-09-06T02:58:07.791Z,97004.67
2018-09-06T03:00:37.583Z,97005.14
2018-09-06T03:03:06.388Z,97002.71
2018-09-06T03:05:35.085Z,97008.77
2018-09-06T03:08:03.719Z,97008.08
2018-09-06T03:10:37.315Z,97008.77
2018-09-06T03:13:05.960Z,97005.84
2018-09-06T03:15:34.544Z,97001.66
2018-09-06T03:18:03.583Z,96993.47
2018-09-06T03:20:32.171Z,97001.53
2018-09-06T03:23:01.047Z,96989.74
2018-09-06T03:25:30.567Z,96992.55
2018-09-06T03:27:59.115Z,96989.52
2018-09-06T03:30:27.717Z,96991.03
2018-09-06T03:32:56.307Z,96987.41
2018-09-06T03:35:24.925Z,96989.38
2018-09-06T03:37:53.524Z,96979.83
2018-09-06T03:40:22.724Z,96974.47
2018-09-06T03:42:51.283Z,96976.31
2018-09-06T03:45:19.829Z,96972.10
2018-09-06T03:47:48.446Z,96977.38
2018-09-06T03:50:17.016Z,96980.04
2018-09-06T03:52:45.562Z,96972.10
2018-09-06T03:55:14.999Z,96972.92
2018-09-06T03:57:44.016Z,96974.80
2018-09-06T04:00:12.655Z,96968.51
2018-09-06T04:02:41.333Z,96972.82
2018-09-06T04:05:09.899Z,96972.10
2018-09-06T04:07:38.527Z,96976.21
2018-09-06T04:10:07.304Z,96972.12
2018-09-06T04:12:35.859Z,96978.88
2018-09-06T04:15:04.720Z,96973.73
2018-09-06T04:17:33.376Z,96974.69
2018-09-06T04:20:01.927Z,96976.08
2018-09-06T04:22:30.509Z,96969.66
2018-09-06T04:24:59.111Z,96969.09
2018-09-06T04:27:27.663Z,96968.03
2018-09-06T04:29:56.347Z,96970.47
2018-09-06T04:32:25.204Z,96968.60
2018-09-06T04:34:53.873Z,96970.48
2018-09-06T04:37:22.435Z,96969.33
2018-09-06T04:39:51.376Z,96964.75
2018-09-06T04:42:19.955Z,96964.98
2018-09-06T04:44:48.503Z,96960.91
2018-09-06T04:47:17.095Z,96962.65
2018-09-06T04:49:45.636Z,96959.27
2018-09-06T04:52:14.191Z,96964.98
2018-09-06T04:54:42.856Z,96966.50
2018-09-06T04:57:11.404Z,96960.67
2018-09-06T04:59:39.980Z,96957.53
2018-09-06T05:02:08.676Z,96960.56
2018-09-06T05:04:37.235Z,96964.42
2018-09-06T05:07:05.875Z,96970.14
2018-09-06T05:09:34.531Z,96966.84
2018-09-06T05:12:03.095Z,96967.80
2018-09-06T05:14:31.692Z,96965.00
2018-09-06T05:17:00.471Z,96967.33
2018-09-06T05:19:29.035Z,96961.15
2018-09-06T05:21:57.680Z,96962.17
2018-09-06T05:24:26.476Z,96954.47
2018-09-06T05:26:55.059Z,96953.32
2018-09-06T05:29:24.052Z,96952.14
2018-09-06T05:31:52.715Z,96954.38
2018-09-06T05:34:21.258Z,96955.30
2018-09-06T05:36:49.803Z,96959.62
2018-09-06T05:39:18.387Z,96961.72
2018-09-06T05:41:46.966Z,96958.33
2018-09-06T05:44:15.519Z,96963.01
2018-09-06T05:46:44.237Z,96959.52
2018-09-06T05:49:12.796Z,96961.72
2018-09-06T05:51:41.347Z,96965.81
2018-09-06T05:54:10.003Z,96963.37
2018-09-06T05:56:38.560Z,96965.11
2018-09-06T05:59:07.135Z,96960.33
2018-09-06T06:01:36.104Z,96959.04
2018-09-06T06:04:04.663Z,96959.52
2018-09-06T06:06:33.203Z,96960.66
2018-09-06T06:09:01.799Z,96954.24
2018-09-06T06:11:30.415Z,96956.01
2018-09-06T06:13:58.959Z,96944.78
2018-09-06T06:16:27.547Z,96948.99
2018-09-06T06:18:56.107Z,96952.23
2018-09-06T06:21:24.675Z,96952.23
2018-09-06T06:23:53.271Z,96954.31
2018-09-06T06:26:21.823Z,96953.16
2018-09-06T06:28:50.371Z,96951.16
2018-09-06T06:31:18.955Z,96950.44
2018-09-06T06:33:47.535Z,96954.42
2018-09-06T06:36:16.086Z,96950.88
2018-09-06T06:38:44.771Z,96943.89
2018-09-06T06:41:13.341Z,96950.17
2018-09-06T06:43:41.917Z,96949.41
2018-09-06T06:46:10.787Z,96948.28
2018-09-06T06:48:39.293Z,96949.06
2018-09-06T06:51:07.848Z,96952.32
2018-09-06T06:53:36.530Z,96947.70
2018-09-06T06:56:05.252Z,96950.44
2018-09-06T06:58:33.884Z,96948.78
2018-09-06T07:01:02.709Z,96950.81
2018-09-06T07:03:31.209Z,96957.12
2018-09-06T07:05:59.748Z,96950.44
2018-09-06T07:08:28.666Z,96959.79
2018-09-06T07:10:57.215Z,96956.44
2018-09-06T07:13:25.764Z,96949.07
2018-09-06T07:15:54.720Z,96949.61
2018-09-06T07:18:23.387Z,96954.27
2018-09-06T07:20:51.939Z,96956.27
2018-09-06T07:23:20.783Z,96949.81
2018-09-06T07:25:49.354Z,96947.06
2018-09-06T07:28:17.919Z,96951.48
2018-09-06T07:30:46.612Z,96951.22
2018-09-06T07:33:15.176Z,96947.07
2018-09-06T07:35:43.727Z,96947.84
2018-09-06T07:38:12.403Z,96953.55
2018-09-06T07:40:40.952Z,96953.30
2018-09-06T07:43:09.507Z,96950.83
2018-09-06T07:45:38.180Z,96950.10
2018-09-06T07:48:06.964Z,96941.77
2018-09-06T07:50:35.523Z,96948.27
2018-09-06T07:53:04.223Z,96947.86
2018-09-06T07:55:32.772Z,96945.14
2018-09-06T07:58:01.344Z,96947.61
2018-09-06T08:00:29.973Z,96945.17
2018-09-06T08:02:58.523Z,96950.77
2018-09-06T08:05:27.072Z,96944.01
2018-09-06T08:07:55.704Z,96946.07
2018-09-06T08:10:24.315Z,96938.75
2018-09-06T08:12:52.883Z,96943.09
2018-09-06T08:15:21.875Z,96942.88
2018-09-06T08:17:50.407Z,96944.43
2018-09-06T08:20:19.032Z,96942.99
2018-09-06T08:22:47.780Z,96940.94
2018-09-06T08:25:16.348Z,96937.27
2018-09-06T08:27:44.907Z,96936.20
2018-09-06T08:30:13.584Z,96940.03
2018-09-06T08:32:42.171Z,96937.47
2018-09-06T08:35:10.724Z,96942.72
2018-09-06T08:37:39.311Z,96934.55
2018-09-06T08:40:07.991Z,96930.22
2018-09-06T08:42:36.548Z,96935.43
2018-09-06T08:45:05.205Z,96930.91
2018-09-06T08:47:33.788Z,96929.48
2018-09-06T08:50:02.347Z,96936.53
2018-09-06T08:52:31.073Z,96930.67
2018-09-06T08:54:59.567Z,96935.78
2018-09-06T08:57:28.127Z,96932.14
2018-09-06T08:59:56.807Z,96933.22
2018-09-06T09:02:25.453Z,96928.24
2018-09-06T09:04:53.971Z,96924.42
2018-09-06T09:07:23.206Z,96919.56
2018-09-06T09:09:51.759Z,96917.14
2018-09-06T09:12:20.425Z,96919.06
2018-09-06T09:14:49.042Z,96914.57
2018-09-06T09:17:17.716Z,96913.59
2018-09-06T09:19:46.297Z,96908.31
2018-09-06T09:22:15.127Z,96905.92
2018-09-06T09:24:43.463Z,96908.53
2018-09-06T09:27:12.051Z,96906.95
2018-09-06T09:29:41.192Z,96906.87
2018-09-06T09:32:09.760Z,96899.70
2018-09-06T09:34:38.339Z,96906.02
2018-09-06T09:37:07.036Z,96898.39
2018-09-06T09:39:35.640Z,96893.55
2018-09-06T09:42:04.210Z,96890.19
2018-09-06T09:44:32.839Z,96892.38
2018-09-06T09:49:29.102Z,96887.23
2018-09-06T09:51:57.788Z,96889.36
2018-09-06T09:54:26.335Z,96885.88
2018-09-06T09:56:54.937Z,96886.09
2018-09-06T09:59:23.547Z,96884.06
2018-09-06T10:01:57.416Z,96875.98
2018-09-06T10:04:31.690Z,96875.75
2018-09-06T10:07:05.532Z,96868.74
2018-09-06T10:09:34.244Z,96869.80
2018-09-06T10:12:02.858Z,96863.71
2018-09-06T10:14:31.404Z,96870.34
2018-09-06T10:17:00.008Z,96859.50
2018-09-06T10:19:28.566Z,96853.86
2018-09-06T10:21:57.175Z,96854.40
2018-09-06T10:24:25.855Z,96854.82
2018-09-06T10:26:54.527Z,96859.44
2018-09-06T10:29:23.113Z,96861.80
2018-09-06T10:31:51.818Z,96865.17
2018-09-06T10:34:20.411Z,96874.92
2018-09-06T10:36:48.980Z,96895.12
2018-09-06T10:39:17.767Z,96892.58
2018-09-06T10:41:46.341Z,96894.89
2018-09-06T10:44:14.947Z,96894.61
2018-09-06T10:46:43.649Z,96905.52
2018-09-06T10:49:12.196Z,96906.52
2018-09-06T10:51:40.760Z,96906.28
2018-09-06T10:54:09.479Z,96902.44
2018-09-06T10:56:38.073Z,96892.52
2018-09-06T10:59:06.732Z,96883.95
2018-09-06T11:01:35.471Z,96875.58
2018-09-06T11:04:04.039Z,96875.34
2018-09-06T11:06:32.599Z,96882.15
2018-09-06T11:09:01.284Z,96879.98
2018-09-06T11:11:29.871Z,96879.61
2018-09-06T11:13:58.424Z,96871.09
2018-09-06T11:16:27.180Z,96866.47
2018-09-06T11:18:55.735Z,96866.76
2018-09-06T11:21:24.380Z,96864.97
2018-09-06T11:23:52.991Z,96863.33
2018-09-06T11:26:21.544Z,96866.06
2018-09-06T11:28:50.102Z,96869.48
2018-09-06T11:31:18.761Z,96863.08
2018-09-06T11:33:47.350Z,96865.30
2018-09-06T11:36:15.935Z,96870.81
2018-09-06T11:38:44.511Z,96869.96
2018-09-06T11:41:13.072Z,96874.20
2018-09-06T11:43:41.640Z,96875.63
2018-09-06T11:46:10.480Z,96873.37
2018-09-06T11:48:39.035Z,96865.70
2018-09-06T11:51:08.427Z,96866.41
2018-09-06T11:53:37.131Z,96864.86
2018-09-06T11:56:06.054Z,96860.63
2018-09-06T11:58:34.615Z,96855.82
2018-09-06T12:01:03.415Z,96858.59
2018-09-06T12:03:32.111Z,96859.48
2018-09-06T12:06:00.709Z,96849.31
2018-09-06T12:08:29.316Z,96845.72
2018-09-06T12:10:57.899Z,96842.17
2018-09-06T12:13:26.456Z,96838.95
2018-09-06T12:15:55.127Z,96844.78
2018-09-06T12:18:23.802Z,96845.44
2018-09-06T12:20:52.399Z,96839.89
2018-09-06T12:23:21.024Z,96836.99
2018-09-06T12:25:49.669Z,96832.61
2018-09-06T12:28:18.257Z,96827.89
2018-09-06T12:30:46.939Z,96823.56
2018-09-06T12:33:15.550Z,96826.91
2018-09-06T12:35:44.181Z,96819.41
2018-09-06T12:38:13.112Z,96820.53
2018-09-06T12:40:41.683Z,96821.76
2018-09-06T12:43:10.256Z,96819.75
2018-09-06T12:45:38.915Z,96811.95
2018-09-06T12:48:07.512Z,96812.76
2018-09-06T12:50:36.175Z,96814.98
2018-09-06T12:53:04.847Z,96809.86
2018-09-06T12:55:33.432Z,96803.92
2018-09-06T12:58:02.011Z,96801.21
2018-09-06T13:00:30.645Z,96798.23
2018-09-06T13:02:59.204Z,96790.95
2018-09-06T13:05:27.768Z,96786.45
2018-09-06T13:07:56.394Z,96778.50
2018-09-06T13:10:24.987Z,96773.66
2018-09-06T13:12:53.568Z,96765.73
2018-09-06T13:15:22.171Z,96762.82
2018-09-06T13:17:50.727Z,96762.50
2018-09-06T13:20:20.248Z,96758.45
2018-09-06T13:22:48.871Z,96764.29
2018-09-06T13:25:17.411Z,96752.92
2018-09-06T13:27:45.995Z,96755.73
2018-09-06T13:30:15.008Z,96756.86
2018-09-06T13:32:43.568Z,96757.17
2018-09-06T13:35:12.128Z,96759.28
2018-09-06T13:37:40.731Z,96759.45
2018-09-06T13:40:09.340Z,96757.50
2018-09-06T13:42:37.892Z,96757.50
2018-09-06T13:45:06.659Z,96761.55
2018-09-06T13:47:35.216Z,96763.66
2018-09-06T13:50:03.798Z,96757.33
2018-09-06T13:52:32.768Z,96750.50
2018-09-06T13:55:01.312Z,96747.45
2018-09-06T13:57:29.867Z,96750.05
2018-09-06T13:59:58.488Z,96746.47
2018-09-06T14:02:27.047Z,96746.59
2018-09-06T14:04:55.738Z,96740.44
2018-09-06T14:07:24.314Z,96738.50
2018-09-06T14:09:52.935Z,96737.52
2018-09-06T14:12:21.497Z,96732.33
2018-09-06T14:14:50.191Z,96730.52
2018-09-06T14:17:18.738Z,96729.06
2018-09-06T14:19:47.296Z,96724.36
2018-09-06T14:22:15.960Z,96712.50
2018-09-06T14:24:44.515Z,96708.12
2018-09-06T14:27:13.108Z,96706.48
2018-09-06T14:29:42.268Z,96695.28
2018-09-06T14:32:10.887Z,96695.14
2018-09-06T14:34:39.385Z,96691.42
2018-09-06T14:37:08.323Z,96687.68
2018-09-06T14:39:36.916Z,96682.31
2018-09-06T14:42:05.588Z,96682.64
2018-09-06T14:44:34.323Z,96685.91
2018-09-06T14:47:02.891Z,96681.52
2018-09-06T14:49:31.507Z,96694.84
2018-09-06T14:52:00.168Z,96699.19
2018-09-06T14:54:28.724Z,96697.10
2018-09-06T14:56:57.271Z,96693.20
2018-09-06T14:59:26.399Z,96692.06
2018-09-06T15:01:55.036Z,96685.72
2018-09-06T15:04:23.631Z,96683.94
2018-09-06T15:06:52.204Z,96681.49
2018-09-06T15:09:20.756Z,96682.16
2018-09-06T15:11:49.291Z,96694.84
2018-09-06T15:14:18.756Z,96714.50
2018-09-06T15:16:47.833Z,96709.48
2018-09-06T15:19:16.419Z,96715.77
2018-09-06T15:21:45.075Z,96707.63
2018-09-06T15:24:13.988Z,96710.52
2018-09-06T15:26:42.576Z,96727.74
2018-09-06T15:29:11.483Z,96746.49
2018-09-06T15:31:40.073Z,96765.97
2018-09-06T15:34:08.647Z,96785.33
2018-09-06T15:36:37.830Z,96780.53
2018-09-06T15:39:08.983Z,96783.05
2018-09-06T15:41:37.632Z,96781.14
2018-09-06T15:44:06.875Z,96785.14
2018-09-06T15:46:35.460Z,96779.10
2018-09-06T15:49:04.123Z,96790.41
2018-09-06T15:51:32.671Z,96783.20
2018-09-06T15:54:01.228Z,96804.27
2018-09-06T15:56:29.811Z,96798.33
2018-09-06T15:58:58.358Z,96787.34
2018-09-06T16:01:26.970Z,96777.73
2018-09-06T16:03:55.639Z,96779.08
2018-09-06T16:06:24.139Z,96768.77
2018-09-06T16:08:52.691Z,96763.31
2018-09-06T16:11:21.659Z,96765.30
2018-09-06T16:13:50.285Z,96782.25
2018-09-06T16:16:18.955Z,96791.05
2018-09-06T16:18:47.799Z,96783.87
2018-09-06T16:21:16.371Z,96784.45
2018-09-06T16:23:44.935Z,96774.55
2018-09-06T16:26:13.596Z,96770.23
2018-09-06T16:28:42.140Z,96767.42
2018-09-06T16:31:10.700Z,96769.20
2018-09-06T16:33:39.403Z,96771.19
2018-09-06T16:36:07.975Z,96767.73
2018-09-06T16:38:36.560Z,96757.70
2018-09-06T16:41:05.288Z,96756.64
2018-09-06T16:43:33.848Z,96752.09
2018-09-06T16:46:02.428Z,96761.52
2018-09-06T16:48:31.111Z,96763.17
2018-09-06T16:50:59.683Z,96770.05
2018-09-06T16:53:28.256Z,96779.49
2018-09-06T16:55:57.338Z,96781.59
2018-09-06T16:58:25.891Z,96784.73
2018-09-06T17:00:54.498Z,96779.70
2018-09-06T17:03:23.367Z,96789.28
2018-09-06T17:05:51.928Z,96786.83
2018-09-06T17:08:20.487Z,96791.61
2018-09-06T17:10:49.316Z,96794.78
2018-09-06T17:13:17.920Z,96802.48
2018-09-06T17:15:52.053Z,96808.76
2018-09-06T17:18:20.624Z,96814.02
2018-09-06T17:20:49.192Z,96812.61
2018-09-06T17:23:17.875Z,96811.00
2018-09-06T17:25:46.439Z,96801.19
2018-09-06T17:28:15.007Z,96809.47
2018-09-06T17:30:43.612Z,96817.16
2018-09-06T17:33:12.245Z,96815.06
2018-09-06T17:35:40.752Z,96811.44
2018-09-06T17:38:09.588Z,96809.00
2018-09-06T17:40:38.143Z,96809.67
2018-09-06T17:43:06.724Z,96803.98
2018-09-06T17:45:35.443Z,96799.18
2018-09-06T17:48:04.006Z,96813.30
2018-09-06T17:50:32.999Z,96809.91
2018-09-06T17:53:01.738Z,96822.17
2018-09-06T17:55:30.392Z,96821.36
2018-09-06T17:57:58.959Z,96833.13
2018-09-06T18:00:27.676Z,96836.17
2018-09-06T18:02:56.296Z,96834.64
2018-09-06T18:05:24.859Z,96840.95
2018-09-06T18:07:53.747Z,96845.50
2018-09-06T18:10:22.300Z,96845.72
2018-09-06T18:12:50.884Z,96849.47
2018-09-06T18:15:19.472Z,96853.91
2018-09-06T18:17:48.206Z,96852.16
2018-09-06T18:20:16.717Z,96850.06
2018-09-06T18:22:45.423Z,96843.17
2018-09-06T18:25:14.088Z,96844.79
2018-09-06T18:27:42.755Z,96845.01
2018-09-06T18:30:11.680Z,96853.53
2018-09-06T18:32:40.259Z,96856.23
2018-09-06T18:35:08.816Z,96854.95
2018-09-06T18:37:37.416Z,96860.64
2018-09-06T18:40:05.992Z,96860.31
2018-09-06T18:42:34.571Z,96858.07
2018-09-06T18:45:03.180Z,96857.83
2018-09-06T18:47:31.821Z,96860.30
2018-09-06T18:50:00.396Z,96860.88
2018-09-06T18:52:29.148Z,96865.19
2018-09-06T18:54:57.711Z,96876.50
2018-09-06T18:57:26.284Z,96882.81
2018-09-06T18:59:55.143Z,96882.48
2018-09-06T19:02:23.733Z,96884.34
2018-09-06T19:04:52.287Z,96893.55
2018-09-06T19:07:20.876Z,96894.11
2018-09-06T19:09:49.448Z,96898.90
2018-09-06T19:12:18.003Z,96894.59
2018-09-06T19:14:46.696Z,96892.82
2018-09-06T19:17:15.247Z,96904.28
2018-09-06T19:19:43.791Z,96891.81
2018-09-06T19:22:12.409Z,96900.53
2018-09-06T19:24:41.160Z,96901.83
2018-09-06T19:27:09.719Z,96906.70
2018-09-06T19:29:38.387Z,96901.69
2018-09-06T19:32:07.072Z,96904.40
2018-09-06T19:34:35.603Z,96891.55
2018-09-06T19:37:04.200Z,96902.75
2018-09-06T19:39:32.805Z,96902.88
2018-09-06T19:42:01.360Z,96902.27
2018-09-06T19:44:30.384Z,96910.09
2018-09-06T19:46:58.948Z,96915.47
2018-09-06T19:49:27.499Z,96908.32
2018-09-06T19:51:56.250Z,96907.98
2018-09-06T19:54:24.942Z,96906.09
2018-09-06T19:56:54.003Z,96898.63
2018-09-06T19:59:22.847Z,96897.10
2018-09-06T20:01:51.465Z,96897.92
2018-09-06T20:04:20.139Z,96895.22
2018-09-06T20:06:48.807Z,96900.03
2018-09-06T20:09:17.381Z,96902.62
2018-09-06T20:11:46.000Z,96905.20
2018-09-06T20:14:15.016Z,96904.48
2018-09-06T20:16:43.626Z,96900.99
2018-09-06T20:19:12.160Z,96906.00
2018-09-06T20:21:40.976Z,96904.48
2018-09-06T20:24:09.523Z,96904.16
2018-09-06T20:26:38.082Z,96906.01
2018-09-06T20:29:06.745Z,96908.95
2018-09-06T20:31:35.287Z,96906.70
2018-09-06T20:34:03.843Z,96901.47
2018-09-06T20:36:32.591Z,96906.48
2018-09-06T20:39:01.169Z,96903.45
2018-09-06T20:41:29.763Z,96893.88
2018-09-06T20:43:58.355Z,96900.89
2018-09-06T20:46:26.899Z,96896.59
2018-09-06T20:48:55.452Z,96895.17
2018-09-06T20:51:24.900Z,96897.64
2018-09-06T20:53:54.011Z,96904.75
2018-09-06T20:56:22.580Z,96900.80
2018-09-06T20:58:51.150Z,96901.14
2018-09-06T21:01:19.700Z,96897.75
2018-09-06T21:03:48.491Z,96906.05
2018-09-06T21:06:17.334Z,96905.82
2018-09-06T21:08:45.907Z,96900.09
2018-09-06T21:11:14.512Z,96892.63
2018-09-06T21:13:43.095Z,96890.30
2018-09-06T21:16:11.695Z,96886.92
2018-09-06T21:18:40.260Z,96888.22
2018-09-06T21:21:08.888Z,96883.91
2018-09-06T21:23:37.460Z,96876.45
2018-09-06T21:26:06.220Z,96876.31
2018-09-06T21:28:34.814Z,96870.59
2018-09-06T21:31:03.387Z,96877.01
2018-09-06T21:33:32.076Z,96876.45
2018-09-06T21:36:00.768Z,96875.86
2018-09-06T21:38:29.347Z,96878.76
2018-09-06T21:40:57.908Z,96871.88
2018-09-06T21:43:26.659Z,96875.47
2018-09-06T21:45:55.272Z,96878.03
2018-09-06T21:48:23.819Z,96891.13
2018-09-06T21:50:52.483Z,96897.31
2018-09-06T21:53:21.019Z,96899.05
2018-09-06T21:55:49.650Z,96899.05
2018-09-06T21:58:18.620Z,96909.31
2018-09-06T22:00:47.252Z,96909.81
2018-09-06T22:03:21.532Z,96912.48
2018-09-06T22:05:50.071Z,96907.94
2018-09-06T22:08:18.618Z,96904.91
2018-09-06T22:10:47.589Z,96904.91
2018-09-06T22:13:16.151Z,96907.56
2018-09-06T22:15:44.703Z,96907.02
2018-09-06T22:18:13.539Z,96908.63
2018-09-06T22:20:42.108Z,96905.96
2018-09-06T22:23:10.663Z,96900.83
2018-09-06T22:25:39.626Z,96903.50
2018-09-06T22:28:08.163Z,96903.86
2018-09-06T22:30:36.728Z,96901.30
2018-09-06T22:33:05.400Z,96907.94
2018-09-06T22:35:33.951Z,96899.78
2018-09-06T22:38:02.598Z,96900.47
2018-09-06T22:40:31.208Z,96905.83
2018-09-06T22:42:59.775Z,96905.61
2018-09-06T22:45:28.319Z,96903.14
2018-09-06T22:47:57.284Z,96905.97
2018-09-06T22:50:25.939Z,96899.78
2018-09-06T22:52:54.492Z,96895.70
2018-09-06T22:55:23.085Z,96894.65
2018-09-06T22:57:51.852Z,96896.36
2018-09-06T23:00:21.114Z,96898.34
2018-09-06T23:02:55.723Z,96904.75
2018-09-06T23:05:24.739Z,96896.56
2018-09-06T23:07:53.296Z,96895.64
2018-09-06T23:10:21.894Z,96895.88
2018-09-06T23:12:51.564Z,96895.41
2018-09-06T23:15:20.406Z,96894.72
2018-09-06T23:17:49.080Z,96899.49
2018-09-06T23:20:17.662Z,96903.56
2018-09-06T23:22:46.224Z,96903.93
2018-09-06T23:25:14.827Z,96907.65
2018-09-06T23:27:43.447Z,96911.95
2018-09-06T23:30:12.034Z,96904.39
2018-09-06T23:32:40.664Z,96912.31
2018-09-06T23:35:09.216Z,96911.63
2018-09-06T23:37:37.843Z,96906.95
2018-09-06T23:40:06.447Z,96907.41
2018-09-06T23:42:34.991Z,96911.84
2018-09-06T23:45:03.560Z,96911.26
2018-09-06T23:47:32.343Z,96909.61
2018-09-06T23:50:00.979Z,96912.77
2018-09-06T23:52:30.531Z,96908.00
2018-09-06T23:54:59.580Z,96911.48
2018-09-06T23:57:28.197Z,96911.72
2018-09-06T23:59:56.751Z,96917.20
